Time;durP1;ratioP1;P1;durP2;ratioP2;P2;SDS_P1;SDS_P2;PMS_P1;PMS_P2;Temp;Humidity;BMP_temperature;BMP_pressure;BME280_temperature;BME280_humidity;BME280_pressure;Samples;Min_cycle;Max_cycle;Signal;HPM_P1;HPM_P2
2021/07/05 00:01:42;;;;;;;6.38;2.28;;;15.70;99.90;;;;;;20493799;28;20039;-47
2021/07/05 00:11:43;;;;;;;7.63;2.08;;;16.30;99.90;;;;;;20489152;28;20055;-47
2021/07/05 00:21:45;;;;;;;9.27;3.20;;;16.80;99.90;;;;;;20502071;28;20047;-48
2021/07/05 00:31:47;;;;;;;7.13;1.88;;;16.90;99.90;;;;;;20485947;28;20042;-48
2021/07/05 00:41:48;;;;;;;2.55;1.08;;;16.90;99.90;;;;;;20499756;28;20047;-47
2021/07/05 00:51:49;;;;;;;3.03;1.60;;;16.70;99.90;;;;;;20492426;28;20508;-48
2021/07/05 01:01:50;;;;;;;2.15;1.05;;;16.60;99.90;;;;;;20484622;28;20047;-48
2021/07/05 01:11:52;;;;;;;3.95;1.52;;;16.40;99.90;;;;;;20492674;28;20047;-47
2021/07/05 01:21:54;;;;;;;4.20;1.70;;;16.40;99.90;;;;;;20484216;28;20071;-47
2021/07/05 01:32:00;;;;;;;4.43;2.35;;;16.50;99.90;;;;;;20496386;28;20046;-47
2021/07/05 01:42:02;;;;;;;6.22;1.75;;;16.50;99.90;;;;;;20491343;28;20137;-47
2021/07/05 01:52:04;;;;;;;5.47;2.80;;;16.50;99.90;;;;;;20494828;28;20125;-47
2021/07/05 02:02:08;;;;;;;5.22;2.63;;;16.60;99.90;;;;;;20494458;28;20035;-47
2021/07/05 02:12:11;;;;;;;6.15;1.90;;;16.60;99.90;;;;;;20485879;28;20513;-48
2021/07/05 02:22:12;;;;;;;3.97;1.85;;;16.50;99.90;;;;;;20499748;28;20070;-47
2021/07/05 02:32:13;;;;;;;4.93;1.52;;;16.40;99.90;;;;;;20489826;28;20039;-48
2021/07/05 02:42:15;;;;;;;4.45;1.65;;;16.40;99.90;;;;;;20488268;28;20041;-48
2021/07/05 02:52:16;;;;;;;4.00;1.48;;;16.40;99.90;;;;;;20480139;28;20035;-47
2021/07/05 03:02:17;;;;;;;5.55;0.60;;;16.50;99.90;;;;;;20486421;28;20150;-47
2021/07/05 03:12:18;;;;;;;2.30;0.70;;;16.30;99.90;;;;;;20494953;28;20089;-47
2021/07/05 03:22:19;;;;;;;3.15;1.35;;;16.00;99.90;;;;;;20494946;28;20055;-47
2021/07/05 03:32:21;;;;;;;3.60;1.30;;;15.80;99.90;;;;;;20509552;28;20067;-47
2021/07/05 03:42:22;;;;;;;2.28;0.93;;;15.80;99.90;;;;;;20496366;28;20115;-47
2021/07/05 03:52:23;;;;;;;11.52;1.10;;;15.70;99.90;;;;;;20491353;28;20069;-47
2021/07/05 04:02:25;;;;;;;6.03;1.33;;;15.70;99.90;;;;;;20512430;28;20094;-47
2021/07/05 04:12:28;;;;;;;4.43;0.93;;;15.50;99.90;;;;;;20492869;28;20047;-48
2021/07/05 04:22:29;;;;;;;3.53;0.73;;;15.50;99.90;;;;;;20503468;28;20403;-48
2021/07/05 04:32:31;;;;;;;5.55;1.33;;;15.50;99.90;;;;;;20500073;28;20050;-47
2021/07/05 04:42:32;;;;;;;3.35;1.05;;;15.50;99.90;;;;;;20491326;28;20521;-47
2021/07/05 04:52:33;;;;;;;13.25;2.08;;;15.50;99.90;;;;;;20487201;28;20149;-47
2021/07/05 05:02:34;;;;;;;5.60;0.93;;;15.50;99.90;;;;;;20497368;28;20039;-50
2021/07/05 05:12:36;;;;;;;10.70;1.40;;;15.40;99.90;;;;;;20498317;28;20051;-50
2021/07/05 05:22:38;;;;;;;3.63;1.13;;;15.50;99.90;;;;;;20485546;28;20039;-50
2021/07/05 05:32:40;;;;;;;3.75;1.27;;;15.40;99.90;;;;;;20483442;28;20042;-50
2021/07/05 05:42:41;;;;;;;2.78;1.02;;;15.40;99.90;;;;;;20486530;28;20047;-50
2021/07/05 05:52:42;;;;;;;1.95;0.77;;;15.50;99.90;;;;;;20492241;28;20047;-50
2021/07/05 06:02:44;;;;;;;3.47;1.67;;;15.30;99.90;;;;;;20481137;28;20428;-49
2021/07/05 06:12:46;;;;;;;6.25;1.40;;;15.40;99.90;;;;;;20478062;28;20122;-50
2021/07/05 06:22:55;;;;;;;7.32;2.45;;;15.40;99.90;;;;;;20484345;28;20162;-50
2021/07/05 06:32:56;;;;;;;8.30;2.25;;;15.50;99.90;;;;;;20471682;28;20070;-49
2021/07/05 06:42:58;;;;;;;6.15;2.17;;;15.70;99.90;;;;;;20468099;28;20533;-50
2021/07/05 06:53:00;;;;;;;8.82;2.08;;;16.00;99.90;;;;;;20485001;28;20050;-50
2021/07/05 07:03:05;;;;;;;3.95;1.35;;;16.20;99.90;;;;;;20472534;28;20515;-50
2021/07/05 07:13:07;;;;;;;4.57;1.40;;;16.30;99.90;;;;;;20480559;28;20114;-50
2021/07/05 07:23:08;;;;;;;2.20;1.10;;;16.50;99.90;;;;;;20470035;28;20043;-50
2021/07/05 07:33:09;;;;;;;8.73;2.35;;;16.60;99.90;;;;;;20482470;28;20126;-50
2021/07/05 07:43:10;;;;;;;3.33;1.00;;;16.70;99.90;;;;;;20475670;28;20050;-51
2021/07/05 07:53:11;;;;;;;3.88;1.40;;;16.70;99.90;;;;;;20496007;28;20076;-50
2021/07/05 08:03:13;;;;;;;5.50;1.58;;;16.90;99.90;;;;;;20492583;28;20549;-50
2021/07/05 08:13:14;;;;;;;6.32;1.40;;;17.00;99.90;;;;;;20496622;28;20055;-50
2021/07/05 08:23:16;;;;;;;3.80;1.90;;;17.20;99.90;;;;;;20489248;28;20815;-51
2021/07/05 08:33:17;;;;;;;8.10;2.60;;;17.40;99.90;;;;;;20486230;28;20044;-50
2021/07/05 08:43:24;;;;;;;6.65;3.42;;;17.90;99.90;;;;;;20498445;28;20050;-51
2021/07/05 08:53:26;;;;;;;8.35;2.58;;;18.00;99.90;;;;;;20488028;28;20718;-51
2021/07/05 09:03:30;;;;;;;6.35;2.70;;;18.10;99.90;;;;;;20495521;28;20503;-51
2021/07/05 09:13:31;;;;;;;6.88;2.97;;;18.00;99.90;;;;;;20486059;28;20077;-49
2021/07/05 09:23:32;;;;;;;7.38;3.10;;;18.30;99.90;;;;;;20476338;28;20053;-48
2021/07/05 09:33:34;;;;;;;5.97;2.85;;;18.60;99.90;;;;;;20483890;28;20043;-48
2021/07/05 09:43:35;;;;;;;8.48;3.00;;;18.80;99.90;;;;;;20485397;28;20046;-48
2021/07/05 09:53:44;;;;;;;6.25;2.25;;;19.10;99.90;;;;;;20483475;28;20518;-48
2021/07/05 10:03:46;;;;;;;4.07;2.45;;;19.10;99.90;;;;;;20486448;28;21877;-48
2021/07/05 10:13:47;;;;;;;7.53;2.67;;;19.10;99.90;;;;;;20477302;28;20039;-49
2021/07/05 10:23:48;;;;;;;4.97;1.95;;;19.70;99.90;;;;;;20479765;28;20049;-48
2021/07/05 10:33:50;;;;;;;3.80;1.98;;;19.70;99.90;;;;;;20476960;28;20054;-49
2021/07/05 10:43:59;;;;;;;5.70;3.47;;;19.50;99.90;;;;;;20477774;28;20043;-49
2021/07/05 10:54:00;;;;;;;7.72;2.95;;;19.70;99.90;;;;;;20489261;28;20053;-48
2021/07/05 11:04:21;;;;;;;4.60;1.92;;;19.30;99.90;;;;;;20490214;28;20039;-48
2021/07/05 11:14:25;;;;;;;4.75;2.67;;;18.90;99.90;;;;;;20476151;28;20502;-48
2021/07/05 11:24:31;;;;;;;3.22;1.65;;;18.60;99.90;;;;;;20499768;28;20039;-48
2021/07/05 11:34:47;;;;;;;3.67;1.38;;;18.30;99.90;;;;;;20515805;28;20046;-48
2021/07/05 11:44:55;;;;;;;3.20;1.48;;;18.20;99.90;;;;;;20499789;28;20053;-48
2021/07/05 11:55:00;;;;;;;6.35;1.27;;;18.30;99.90;;;;;;20495107;28;20112;-48
2021/07/05 12:05:09;;;;;;;3.85;1.75;;;18.70;99.90;;;;;;20488044;28;20054;-51
2021/07/05 12:15:10;;;;;;;4.82;1.88;;;18.60;99.90;;;;;;20482023;28;20055;-51
2021/07/05 12:25:13;;;;;;;7.70;1.95;;;18.70;99.90;;;;;;20507402;28;20118;-51
2021/07/05 12:35:15;;;;;;;4.95;1.63;;;18.60;99.90;;;;;;20503110;28;20047;-48
2021/07/05 12:45:22;;;;;;;2.85;1.48;;;18.60;99.90;;;;;;20501552;28;20035;-48
2021/07/05 12:55:23;;;;;;;2.07;1.03;;;18.60;99.90;;;;;;20498349;28;20062;-49
2021/07/05 13:05:24;;;;;;;4.32;1.65;;;18.70;99.90;;;;;;20504161;28;20054;-48
2021/07/05 13:15:34;;;;;;;2.55;1.17;;;18.50;99.90;;;;;;20491656;28;20051;-48
2021/07/05 13:25:35;;;;;;;2.22;1.00;;;18.50;99.90;;;;;;20487829;28;20658;-48
2021/07/05 13:35:42;;;;;;;1.85;1.02;;;18.80;99.90;;;;;;20481372;28;20039;-48
2021/07/05 13:45:46;;;;;;;3.27;1.80;;;18.50;99.90;;;;;;20490341;28;20054;-48
2021/07/05 13:56:13;;;;;;;6.82;2.20;;;18.40;99.90;;;;;;20484992;28;20062;-48
2021/07/05 14:06:16;;;;;;;5.22;2.30;;;18.00;99.90;;;;;;20487461;28;20183;-48
2021/07/05 14:16:18;;;;;;;4.00;2.08;;;17.80;99.90;;;;;;20481157;28;20062;-48
2021/07/05 14:26:20;;;;;;;7.25;2.45;;;17.10;99.90;;;;;;20486728;28;20054;-48
2021/07/05 14:36:21;;;;;;;3.63;2.03;;;16.80;99.90;;;;;;20480585;28;20047;-48
2021/07/05 14:46:28;;;;;;;4.18;1.80;;;16.90;99.90;;;;;;20475479;28;20395;-48
2021/07/05 14:56:30;;;;;;;3.17;1.17;;;16.90;99.90;;;;;;20479531;28;20047;-50
2021/07/05 15:06:31;;;;;;;2.72;1.67;;;16.70;99.90;;;;;;20476275;28;20767;-51
2021/07/05 15:16:33;;;;;;;5.45;2.00;;;16.60;99.90;;;;;;20465988;28;20510;-48
2021/07/05 15:26:34;;;;;;;3.30;1.50;;;16.60;99.90;;;;;;20464882;28;20058;-48
2021/07/05 15:36:37;;;;;;;6.90;1.45;;;17.20;99.90;;;;;;20475056;28;20061;-48
2021/07/05 15:46:40;;;;;;;3.30;1.98;;;17.30;99.90;;;;;;20469414;28;20043;-48
2021/07/05 15:56:41;;;;;;;4.75;1.83;;;17.60;99.90;;;;;;20472792;28;20570;-48
2021/07/05 16:06:43;;;;;;;4.30;1.73;;;17.80;99.90;;;;;;20475062;28;20047;-48
2021/07/05 16:16:44;;;;;;;6.68;2.10;;;18.00;99.90;;;;;;20485245;28;20054;-48
2021/07/05 16:26:45;;;;;;;4.38;1.50;;;18.00;99.90;;;;;;20499436;28;20779;-48
2021/07/05 16:36:46;;;;;;;2.55;1.10;;;17.80;99.90;;;;;;20482599;28;20102;-48
2021/07/05 16:46:47;;;;;;;2.65;1.00;;;17.80;99.90;;;;;;20485721;28;20142;-51
2021/07/05 16:56:49;;;;;;;3.13;1.08;;;17.70;99.90;;;;;;20508626;28;20134;-50
2021/07/05 17:06:50;;;;;;;2.45;1.25;;;17.60;99.90;;;;;;20505361;28;20037;-51
2021/07/05 17:16:51;;;;;;;3.42;1.27;;;17.90;99.90;;;;;;20486110;28;20051;-49
2021/07/05 17:26:53;;;;;;;3.78;2.20;;;18.30;99.90;;;;;;20489000;28;20075;-49
2021/07/05 17:36:54;;;;;;;2.25;1.15;;;18.20;99.90;;;;;;20487528;28;20062;-49
2021/07/05 17:46:55;;;;;;;1.90;1.10;;;18.00;99.90;;;;;;20498689;28;20046;-48
2021/07/05 17:56:59;;;;;;;1.30;0.80;;;18.30;99.90;;;;;;20484886;28;20411;-49
2021/07/05 18:07:00;;;;;;;1.85;1.08;;;18.20;99.90;;;;;;20478451;28;20043;-48
2021/07/05 18:17:03;;;;;;;2.50;1.02;;;18.20;99.90;;;;;;20486944;28;20050;-48
2021/07/05 18:27:05;;;;;;;2.45;1.40;;;18.30;99.90;;;;;;20476640;28;20043;-49
2021/07/05 18:37:06;;;;;;;4.88;0.95;;;18.10;99.90;;;;;;20457732;28;20043;-49
2021/07/05 18:47:08;;;;;;;2.00;1.00;;;18.00;99.90;;;;;;20474594;28;20051;-49
2021/07/05 18:57:09;;;;;;;2.10;1.10;;;18.10;99.90;;;;;;20475005;28;20043;-49
2021/07/05 19:07:11;;;;;;;2.13;1.27;;;17.90;99.90;;;;;;20472500;28;20045;-48
2021/07/05 19:17:13;;;;;;;2.55;1.10;;;18.00;99.90;;;;;;20487456;28;20076;-49
2021/07/05 19:27:14;;;;;;;1.60;0.80;;;17.70;99.90;;;;;;20470157;28;20039;-49
2021/07/05 19:37:15;;;;;;;2.47;1.02;;;17.80;99.90;;;;;;20473664;28;20070;-49
2021/07/05 19:47:16;;;;;;;2.75;1.27;;;17.80;99.90;;;;;;20477476;28;20090;-48
2021/07/05 19:57:18;;;;;;;3.55;1.10;;;17.70;99.90;;;;;;20496904;28;20046;-49
2021/07/05 20:07:19;;;;;;;4.25;1.42;;;17.60;99.90;;;;;;20483996;28;20050;-49
2021/07/05 20:17:21;;;;;;;2.90;1.33;;;17.60;99.90;;;;;;20492089;28;20109;-49
2021/07/05 20:27:22;;;;;;;2.30;1.05;;;17.60;99.90;;;;;;20477538;28;20035;-49
2021/07/05 20:37:23;;;;;;;3.13;1.45;;;17.50;99.90;;;;;;20491151;28;20058;-49
2021/07/05 20:47:24;;;;;;;6.20;1.30;;;17.40;99.90;;;;;;20488057;28;20166;-49
2021/07/05 20:57:25;;;;;;;2.92;1.70;;;17.50;99.90;;;;;;20501580;28;20062;-49
2021/07/05 21:07:27;;;;;;;5.95;1.80;;;17.60;99.90;;;;;;20479572;28;20043;-49
2021/07/05 21:17:28;;;;;;;4.35;1.90;;;17.70;99.90;;;;;;20484278;28;20506;-49
2021/07/05 21:27:30;;;;;;;4.30;2.20;;;17.80;99.90;;;;;;20499221;28;20647;-49
2021/07/05 21:37:33;;;;;;;4.18;2.05;;;17.90;99.90;;;;;;20492050;28;20058;-48
2021/07/05 21:47:36;;;;;;;3.10;1.52;;;17.70;99.90;;;;;;20492373;28;20042;-49
2021/07/05 21:57:37;;;;;;;3.28;1.52;;;17.60;99.90;;;;;;20498928;28;20047;-49
2021/07/05 22:07:39;;;;;;;3.10;1.52;;;17.80;99.90;;;;;;20480113;28;20039;-49
2021/07/05 22:17:41;;;;;;;6.05;2.15;;;17.90;99.90;;;;;;20489128;28;20043;-49
2021/07/05 22:27:43;;;;;;;3.20;1.60;;;17.80;99.90;;;;;;20496710;28;20046;-48
2021/07/05 22:37:45;;;;;;;3.88;1.88;;;17.80;99.90;;;;;;20489444;28;20133;-49
2021/07/05 22:47:47;;;;;;;6.60;1.77;;;17.80;99.90;;;;;;20477988;28;20554;-48
2021/07/05 22:57:48;;;;;;;3.85;1.60;;;17.90;99.90;;;;;;20480770;28;20047;-49
2021/07/05 23:07:52;;;;;;;7.60;1.65;;;17.80;99.90;;;;;;20478774;28;20146;-48
2021/07/05 23:17:55;;;;;;;4.25;1.77;;;17.80;99.90;;;;;;20479160;28;20040;-48
2021/07/05 23:27:57;;;;;;;5.70;2.40;;;17.50;99.90;;;;;;20505592;28;20148;-48
2021/07/05 23:38:00;;;;;;;5.95;2.70;;;17.40;99.90;;;;;;20495793;28;20202;-48
2021/07/05 23:48:01;;;;;;;5.97;2.05;;;17.40;99.90;;;;;;20493842;28;20042;-48
2021/07/05 23:58:03;;;;;;;9.65;3.28;;;17.30;99.90;;;;;;20508490;28;20047;-49
